sensor_id;sensor_type;location;lat;lon;timestamp;P1;durP1;ratioP1;P2;durP2;ratioP2
4555;SDS011;2290;48.674;9.018;2023-06-10T00:01:28;7.03;;;6.33;;
4555;SDS011;2290;48.674;9.018;2023-06-10T00:03:55;6.27;;;5.67;;
4555;SDS011;2290;48.674;9.018;2023-06-10T00:06:25;6.60;;;5.90;;
4555;SDS011;2290;48.674;9.018;2023-06-10T00:08:50;7.20;;;6.20;;
4555;SDS011;2290;48.674;9.018;2023-06-10T00:11:16;7.63;;;6.47;;
4555;SDS011;2290;48.674;9.018;2023-06-10T00:13:42;7.47;;;5.87;;
4555;SDS011;2290;48.674;9.018;2023-06-10T00:16:07;8.37;;;6.63;;
4555;SDS011;2290;48.674;9.018;2023-06-10T00:18:33;8.10;;;6.60;;
4555;SDS011;2290;48.674;9.018;2023-06-10T00:21:01;9.07;;;6.70;;
4555;SDS011;2290;48.674;9.018;2023-06-10T00:23:29;10.30;;;6.70;;
4555;SDS011;2290;48.674;9.018;2023-06-10T00:25:57;7.00;;;6.17;;
4555;SDS011;2290;48.674;9.018;2023-06-10T00:28:24;8.20;;;7.30;;
4555;SDS011;2290;48.674;9.018;2023-06-10T00:30:51;6.60;;;5.90;;
4555;SDS011;2290;48.674;9.018;2023-06-10T00:33:18;7.30;;;6.20;;
4555;SDS011;2290;48.674;9.018;2023-06-10T00:35:44;6.63;;;5.70;;
4555;SDS011;2290;48.674;9.018;2023-06-10T00:38:10;8.43;;;6.80;;
4555;SDS011;2290;48.674;9.018;2023-06-10T00:40:39;9.70;;;6.80;;
4555;SDS011;2290;48.674;9.018;2023-06-10T00:43:06;7.20;;;6.50;;
4555;SDS011;2290;48.674;9.018;2023-06-10T00:45:32;8.67;;;6.60;;
4555;SDS011;2290;48.674;9.018;2023-06-10T00:47:58;6.73;;;5.50;;
4555;SDS011;2290;48.674;9.018;2023-06-10T00:50:27;8.90;;;6.97;;
4555;SDS011;2290;48.674;9.018;2023-06-10T00:52:53;8.33;;;6.17;;
4555;SDS011;2290;48.674;9.018;2023-06-10T00:55:20;7.60;;;6.80;;
4555;SDS011;2290;48.674;9.018;2023-06-10T00:57:46;7.60;;;6.43;;
4555;SDS011;2290;48.674;9.018;2023-06-10T01:00:13;8.20;;;6.37;;
4555;SDS011;2290;48.674;9.018;2023-06-10T01:02:40;7.27;;;6.30;;
4555;SDS011;2290;48.674;9.018;2023-06-10T01:05:06;8.43;;;7.07;;
4555;SDS011;2290;48.674;9.018;2023-06-10T01:07:35;7.83;;;6.50;;
4555;SDS011;2290;48.674;9.018;2023-06-10T01:10:16;8.23;;;6.57;;
4555;SDS011;2290;48.674;9.018;2023-06-10T01:12:52;7.90;;;6.37;;
4555;SDS011;2290;48.674;9.018;2023-06-10T01:15:24;7.43;;;6.63;;
4555;SDS011;2290;48.674;9.018;2023-06-10T01:18:00;8.83;;;6.57;;
4555;SDS011;2290;48.674;9.018;2023-06-10T01:20:27;12.97;;;8.27;;
4555;SDS011;2290;48.674;9.018;2023-06-10T01:22:54;8.00;;;6.33;;
4555;SDS011;2290;48.674;9.018;2023-06-10T01:25:21;13.83;;;6.70;;
4555;SDS011;2290;48.674;9.018;2023-06-10T01:28:10;7.90;;;7.00;;
4555;SDS011;2290;48.674;9.018;2023-06-10T01:31:09;9.30;;;7.20;;
4555;SDS011;2290;48.674;9.018;2023-06-10T01:33:47;7.83;;;6.50;;
4555;SDS011;2290;48.674;9.018;2023-06-10T01:36:17;7.93;;;6.57;;
4555;SDS011;2290;48.674;9.018;2023-06-10T01:38:45;8.90;;;7.10;;
4555;SDS011;2290;48.674;9.018;2023-06-10T01:41:12;7.53;;;6.73;;
4555;SDS011;2290;48.674;9.018;2023-06-10T01:43:40;6.90;;;5.80;;
4555;SDS011;2290;48.674;9.018;2023-06-10T01:46:08;8.27;;;6.87;;
4555;SDS011;2290;48.674;9.018;2023-06-10T01:48:34;7.83;;;6.10;;
4555;SDS011;2290;48.674;9.018;2023-06-10T01:51:00;9.00;;;6.57;;
4555;SDS011;2290;48.674;9.018;2023-06-10T01:53:26;10.07;;;6.77;;
4555;SDS011;2290;48.674;9.018;2023-06-10T01:55:52;8.03;;;6.30;;
4555;SDS011;2290;48.674;9.018;2023-06-10T01:58:19;9.30;;;6.47;;
4555;SDS011;2290;48.674;9.018;2023-06-10T02:00:44;7.50;;;6.70;;
4555;SDS011;2290;48.674;9.018;2023-06-10T02:03:12;8.67;;;5.97;;
4555;SDS011;2290;48.674;9.018;2023-06-10T02:05:38;7.37;;;6.33;;
4555;SDS011;2290;48.674;9.018;2023-06-10T02:08:05;9.00;;;6.60;;
4555;SDS011;2290;48.674;9.018;2023-06-10T02:10:31;7.67;;;6.63;;
4555;SDS011;2290;48.674;9.018;2023-06-10T02:12:57;7.60;;;6.30;;
4555;SDS011;2290;48.674;9.018;2023-06-10T02:15:22;8.37;;;6.67;;
4555;SDS011;2290;48.674;9.018;2023-06-10T02:17:48;7.37;;;6.33;;
4555;SDS011;2290;48.674;9.018;2023-06-10T02:20:16;8.80;;;6.37;;
4555;SDS011;2290;48.674;9.018;2023-06-10T02:22:42;7.97;;;6.63;;
4555;SDS011;2290;48.674;9.018;2023-06-10T02:25:08;6.97;;;6.30;;
4555;SDS011;2290;48.674;9.018;2023-06-10T02:27:34;8.07;;;6.40;;
4555;SDS011;2290;48.674;9.018;2023-06-10T02:29:59;7.93;;;6.20;;
4555;SDS011;2290;48.674;9.018;2023-06-10T02:32:25;7.30;;;6.57;;
4555;SDS011;2290;48.674;9.018;2023-06-10T02:34:51;7.63;;;6.27;;
4555;SDS011;2290;48.674;9.018;2023-06-10T02:37:17;7.33;;;6.20;;
4555;SDS011;2290;48.674;9.018;2023-06-10T02:39:43;7.93;;;6.60;;
4555;SDS011;2290;48.674;9.018;2023-06-10T02:42:09;7.83;;;6.70;;
4555;SDS011;2290;48.674;9.018;2023-06-10T02:44:35;9.77;;;7.03;;
4555;SDS011;2290;48.674;9.018;2023-06-10T02:47:01;7.93;;;6.53;;
4555;SDS011;2290;48.674;9.018;2023-06-10T02:49:27;8.53;;;6.90;;
4555;SDS011;2290;48.674;9.018;2023-06-10T02:51:53;7.20;;;6.00;;
4555;SDS011;2290;48.674;9.018;2023-06-10T02:54:19;7.83;;;6.40;;
4555;SDS011;2290;48.674;9.018;2023-06-10T02:56:45;8.90;;;6.90;;
4555;SDS011;2290;48.674;9.018;2023-06-10T02:59:13;9.13;;;7.10;;
4555;SDS011;2290;48.674;9.018;2023-06-10T03:01:38;7.20;;;6.00;;
4555;SDS011;2290;48.674;9.018;2023-06-10T03:04:05;7.93;;;6.50;;
4555;SDS011;2290;48.674;9.018;2023-06-10T03:06:32;6.97;;;6.00;;
4555;SDS011;2290;48.674;9.018;2023-06-10T03:09:00;9.97;;;6.80;;
4555;SDS011;2290;48.674;9.018;2023-06-10T03:11:27;10.10;;;6.97;;
4555;SDS011;2290;48.674;9.018;2023-06-10T03:13:52;8.33;;;7.07;;
4555;SDS011;2290;48.674;9.018;2023-06-10T03:16:21;8.70;;;6.67;;
4555;SDS011;2290;48.674;9.018;2023-06-10T03:18:48;8.10;;;6.97;;
4555;SDS011;2290;48.674;9.018;2023-06-10T03:21:14;7.43;;;6.57;;
4555;SDS011;2290;48.674;9.018;2023-06-10T03:23:40;8.60;;;6.80;;
4555;SDS011;2290;48.674;9.018;2023-06-10T03:26:05;8.57;;;6.37;;
4555;SDS011;2290;48.674;9.018;2023-06-10T03:28:31;8.00;;;5.73;;
4555;SDS011;2290;48.674;9.018;2023-06-10T03:30:58;10.67;;;6.67;;
4555;SDS011;2290;48.674;9.018;2023-06-10T03:33:23;7.80;;;6.80;;
4555;SDS011;2290;48.674;9.018;2023-06-10T03:35:50;8.30;;;6.30;;
4555;SDS011;2290;48.674;9.018;2023-06-10T03:38:16;8.33;;;7.03;;
4555;SDS011;2290;48.674;9.018;2023-06-10T03:40:41;6.83;;;6.10;;
4555;SDS011;2290;48.674;9.018;2023-06-10T03:43:07;8.27;;;6.43;;
4555;SDS011;2290;48.674;9.018;2023-06-10T03:45:32;7.47;;;6.50;;
4555;SDS011;2290;48.674;9.018;2023-06-10T03:47:58;9.13;;;7.03;;
4555;SDS011;2290;48.674;9.018;2023-06-10T03:50:23;7.87;;;6.80;;
4555;SDS011;2290;48.674;9.018;2023-06-10T03:52:49;8.47;;;7.30;;
4555;SDS011;2290;48.674;9.018;2023-06-10T03:55:15;7.33;;;6.13;;
4555;SDS011;2290;48.674;9.018;2023-06-10T03:57:41;8.23;;;7.03;;
4555;SDS011;2290;48.674;9.018;2023-06-10T04:00:09;8.47;;;7.30;;
4555;SDS011;2290;48.674;9.018;2023-06-10T04:02:37;11.63;;;7.33;;
4555;SDS011;2290;48.674;9.018;2023-06-10T04:05:06;8.80;;;6.80;;
4555;SDS011;2290;48.674;9.018;2023-06-10T04:07:32;9.60;;;6.67;;
4555;SDS011;2290;48.674;9.018;2023-06-10T04:09:59;8.83;;;6.97;;
4555;SDS011;2290;48.674;9.018;2023-06-10T04:12:24;7.33;;;6.33;;
4555;SDS011;2290;48.674;9.018;2023-06-10T04:14:50;10.70;;;6.40;;
4555;SDS011;2290;48.674;9.018;2023-06-10T04:17:17;8.53;;;6.70;;
4555;SDS011;2290;48.674;9.018;2023-06-10T04:19:43;13.57;;;8.23;;
4555;SDS011;2290;48.674;9.018;2023-06-10T04:22:10;8.73;;;6.90;;
4555;SDS011;2290;48.674;9.018;2023-06-10T04:24:36;11.77;;;7.63;;
4555;SDS011;2290;48.674;9.018;2023-06-10T04:27:01;9.60;;;7.23;;
4555;SDS011;2290;48.674;9.018;2023-06-10T04:29:28;7.77;;;6.57;;
4555;SDS011;2290;48.674;9.018;2023-06-10T04:31:54;10.90;;;7.70;;
4555;SDS011;2290;48.674;9.018;2023-06-10T04:34:19;9.27;;;7.93;;
4555;SDS011;2290;48.674;9.018;2023-06-10T04:36:46;10.53;;;7.03;;
4555;SDS011;2290;48.674;9.018;2023-06-10T04:39:12;9.00;;;6.90;;
4555;SDS011;2290;48.674;9.018;2023-06-10T04:41:41;8.90;;;6.97;;
4555;SDS011;2290;48.674;9.018;2023-06-10T04:44:07;9.20;;;7.53;;
4555;SDS011;2290;48.674;9.018;2023-06-10T04:46:33;9.27;;;7.70;;
4555;SDS011;2290;48.674;9.018;2023-06-10T04:48:58;8.47;;;6.50;;
4555;SDS011;2290;48.674;9.018;2023-06-10T04:51:24;9.60;;;7.63;;
4555;SDS011;2290;48.674;9.018;2023-06-10T04:53:49;8.47;;;7.03;;
4555;SDS011;2290;48.674;9.018;2023-06-10T04:56:15;10.17;;;7.80;;
4555;SDS011;2290;48.674;9.018;2023-06-10T04:58:42;10.07;;;7.60;;
4555;SDS011;2290;48.674;9.018;2023-06-10T05:01:08;8.90;;;6.93;;
4555;SDS011;2290;48.674;9.018;2023-06-10T05:03:33;10.50;;;7.57;;
4555;SDS011;2290;48.674;9.018;2023-06-10T05:05:59;8.17;;;7.20;;
4555;SDS011;2290;48.674;9.018;2023-06-10T05:08:24;8.53;;;7.10;;
4555;SDS011;2290;48.674;9.018;2023-06-10T05:10:50;8.77;;;7.03;;
4555;SDS011;2290;48.674;9.018;2023-06-10T05:13:16;8.20;;;6.47;;
4555;SDS011;2290;48.674;9.018;2023-06-10T05:15:42;8.00;;;6.50;;
4555;SDS011;2290;48.674;9.018;2023-06-10T05:18:09;11.60;;;7.43;;
4555;SDS011;2290;48.674;9.018;2023-06-10T05:20:37;9.50;;;7.07;;
4555;SDS011;2290;48.674;9.018;2023-06-10T05:23:03;20.33;;;7.30;;
4555;SDS011;2290;48.674;9.018;2023-06-10T05:25:30;8.83;;;7.20;;
4555;SDS011;2290;48.674;9.018;2023-06-10T05:27:56;8.50;;;7.23;;
4555;SDS011;2290;48.674;9.018;2023-06-10T05:30:23;9.40;;;7.80;;
4555;SDS011;2290;48.674;9.018;2023-06-10T05:32:49;8.83;;;6.87;;
4555;SDS011;2290;48.674;9.018;2023-06-10T05:35:17;10.47;;;7.20;;
4555;SDS011;2290;48.674;9.018;2023-06-10T05:37:43;8.30;;;6.90;;
4555;SDS011;2290;48.674;9.018;2023-06-10T05:40:09;8.93;;;7.07;;
4555;SDS011;2290;48.674;9.018;2023-06-10T05:42:35;9.07;;;7.30;;
4555;SDS011;2290;48.674;9.018;2023-06-10T05:45:01;7.30;;;6.37;;
4555;SDS011;2290;48.674;9.018;2023-06-10T05:47:28;9.17;;;6.50;;
4555;SDS011;2290;48.674;9.018;2023-06-10T05:49:54;8.00;;;6.20;;
4555;SDS011;2290;48.674;9.018;2023-06-10T05:52:20;8.67;;;5.40;;
4555;SDS011;2290;48.674;9.018;2023-06-10T05:54:46;6.00;;;5.40;;
4555;SDS011;2290;48.674;9.018;2023-06-10T05:57:12;7.50;;;5.83;;
4555;SDS011;2290;48.674;9.018;2023-06-10T05:59:37;8.30;;;5.57;;
4555;SDS011;2290;48.674;9.018;2023-06-10T06:02:03;7.63;;;5.80;;
4555;SDS011;2290;48.674;9.018;2023-06-10T06:04:29;7.40;;;5.50;;
4555;SDS011;2290;48.674;9.018;2023-06-10T06:06:54;6.00;;;4.80;;
4555;SDS011;2290;48.674;9.018;2023-06-10T06:09:20;6.20;;;4.97;;
4555;SDS011;2290;48.674;9.018;2023-06-10T06:11:45;6.90;;;5.37;;
4555;SDS011;2290;48.674;9.018;2023-06-10T06:14:11;6.10;;;5.10;;
4555;SDS011;2290;48.674;9.018;2023-06-10T06:16:37;6.73;;;5.00;;
4555;SDS011;2290;48.674;9.018;2023-06-10T06:19:03;10.20;;;5.90;;
4555;SDS011;2290;48.674;9.018;2023-06-10T06:21:28;7.63;;;6.20;;
4555;SDS011;2290;48.674;9.018;2023-06-10T06:23:54;7.63;;;5.60;;
4555;SDS011;2290;48.674;9.018;2023-06-10T06:26:20;6.43;;;5.30;;
4555;SDS011;2290;48.674;9.018;2023-06-10T06:28:45;6.87;;;5.23;;
4555;SDS011;2290;48.674;9.018;2023-06-10T06:31:11;5.40;;;4.87;;
4555;SDS011;2290;48.674;9.018;2023-06-10T06:33:37;7.97;;;6.10;;
4555;SDS011;2290;48.674;9.018;2023-06-10T06:36:02;6.87;;;5.70;;
4555;SDS011;2290;48.674;9.018;2023-06-10T06:38:28;6.30;;;4.93;;
4555;SDS011;2290;48.674;9.018;2023-06-10T06:40:54;6.70;;;5.50;;
4555;SDS011;2290;48.674;9.018;2023-06-10T06:43:19;7.27;;;5.80;;
4555;SDS011;2290;48.674;9.018;2023-06-10T06:45:46;6.43;;;5.23;;
4555;SDS011;2290;48.674;9.018;2023-06-10T06:48:12;6.53;;;5.33;;
4555;SDS011;2290;48.674;9.018;2023-06-10T06:50:37;6.70;;;5.10;;
4555;SDS011;2290;48.674;9.018;2023-06-10T06:53:03;7.07;;;5.40;;
4555;SDS011;2290;48.674;9.018;2023-06-10T06:55:29;7.00;;;5.13;;
4555;SDS011;2290;48.674;9.018;2023-06-10T06:57:55;6.10;;;5.07;;
4555;SDS011;2290;48.674;9.018;2023-06-10T07:00:21;8.10;;;5.17;;
4555;SDS011;2290;48.674;9.018;2023-06-10T07:02:47;6.77;;;5.27;;
4555;SDS011;2290;48.674;9.018;2023-06-10T07:05:13;6.40;;;5.30;;
4555;SDS011;2290;48.674;9.018;2023-06-10T07:07:39;7.13;;;5.67;;
4555;SDS011;2290;48.674;9.018;2023-06-10T07:10:06;6.90;;;5.40;;
4555;SDS011;2290;48.674;9.018;2023-06-10T07:12:32;10.30;;;6.10;;
4555;SDS011;2290;48.674;9.018;2023-06-10T07:14:58;8.00;;;5.70;;
4555;SDS011;2290;48.674;9.018;2023-06-10T07:17:23;7.57;;;5.80;;
4555;SDS011;2290;48.674;9.018;2023-06-10T07:19:49;7.23;;;5.50;;
4555;SDS011;2290;48.674;9.018;2023-06-10T07:22:16;7.60;;;5.10;;
4555;SDS011;2290;48.674;9.018;2023-06-10T07:24:42;6.27;;;5.00;;
4555;SDS011;2290;48.674;9.018;2023-06-10T07:27:07;5.73;;;4.83;;
4555;SDS011;2290;48.674;9.018;2023-06-10T07:29:35;6.53;;;5.37;;
4555;SDS011;2290;48.674;9.018;2023-06-10T07:32:01;7.40;;;5.50;;
4555;SDS011;2290;48.674;9.018;2023-06-10T07:34:28;6.10;;;4.60;;
4555;SDS011;2290;48.674;9.018;2023-06-10T07:36:54;5.63;;;4.67;;
4555;SDS011;2290;48.674;9.018;2023-06-10T07:39:19;6.23;;;4.53;;
4555;SDS011;2290;48.674;9.018;2023-06-10T07:41:45;5.40;;;4.90;;
4555;SDS011;2290;48.674;9.018;2023-06-10T07:44:10;6.57;;;4.77;;
4555;SDS011;2290;48.674;9.018;2023-06-10T07:46:37;7.10;;;5.50;;
4555;SDS011;2290;48.674;9.018;2023-06-10T07:49:03;6.10;;;4.67;;
4555;SDS011;2290;48.674;9.018;2023-06-10T07:51:28;6.00;;;4.53;;
4555;SDS011;2290;48.674;9.018;2023-06-10T07:53:54;6.67;;;5.13;;
4555;SDS011;2290;48.674;9.018;2023-06-10T07:56:19;5.37;;;4.70;;
4555;SDS011;2290;48.674;9.018;2023-06-10T07:58:46;5.47;;;4.73;;
4555;SDS011;2290;48.674;9.018;2023-06-10T08:01:12;5.47;;;4.60;;
4555;SDS011;2290;48.674;9.018;2023-06-10T08:03:37;6.23;;;4.57;;
4555;SDS011;2290;48.674;9.018;2023-06-10T08:06:03;5.33;;;4.43;;
4555;SDS011;2290;48.674;9.018;2023-06-10T08:08:28;5.67;;;4.40;;
4555;SDS011;2290;48.674;9.018;2023-06-10T08:10:55;6.27;;;4.70;;
4555;SDS011;2290;48.674;9.018;2023-06-10T08:13:21;5.90;;;4.90;;
4555;SDS011;2290;48.674;9.018;2023-06-10T08:15:47;5.43;;;4.70;;
4555;SDS011;2290;48.674;9.018;2023-06-10T08:18:15;7.30;;;4.90;;
4555;SDS011;2290;48.674;9.018;2023-06-10T08:20:41;6.30;;;5.00;;
4555;SDS011;2290;48.674;9.018;2023-06-10T08:23:06;10.93;;;4.80;;
4555;SDS011;2290;48.674;9.018;2023-06-10T08:25:32;5.60;;;4.57;;
4555;SDS011;2290;48.674;9.018;2023-06-10T08:27:57;5.67;;;5.07;;
4555;SDS011;2290;48.674;9.018;2023-06-10T08:30:23;6.90;;;5.47;;
4555;SDS011;2290;48.674;9.018;2023-06-10T08:32:49;6.17;;;5.30;;
4555;SDS011;2290;48.674;9.018;2023-06-10T08:35:16;5.80;;;4.80;;
4555;SDS011;2290;48.674;9.018;2023-06-10T08:37:41;6.27;;;4.67;;
4555;SDS011;2290;48.674;9.018;2023-06-10T08:40:07;5.63;;;4.80;;
4555;SDS011;2290;48.674;9.018;2023-06-10T08:42:35;6.40;;;4.90;;
4555;SDS011;2290;48.674;9.018;2023-06-10T08:45:08;6.67;;;4.87;;
4555;SDS011;2290;48.674;9.018;2023-06-10T08:47:39;7.13;;;5.40;;
4555;SDS011;2290;48.674;9.018;2023-06-10T08:50:07;6.20;;;5.23;;
4555;SDS011;2290;48.674;9.018;2023-06-10T08:52:35;6.43;;;4.43;;
4555;SDS011;2290;48.674;9.018;2023-06-10T08:55:10;5.43;;;4.63;;
4555;SDS011;2290;48.674;9.018;2023-06-10T08:57:39;5.00;;;4.47;;
4555;SDS011;2290;48.674;9.018;2023-06-10T09:00:09;5.50;;;4.63;;
4555;SDS011;2290;48.674;9.018;2023-06-10T09:02:36;7.43;;;5.10;;
4555;SDS011;2290;48.674;9.018;2023-06-10T09:05:02;5.80;;;4.47;;
4555;SDS011;2290;48.674;9.018;2023-06-10T09:07:29;7.17;;;4.97;;
4555;SDS011;2290;48.674;9.018;2023-06-10T09:10:01;4.50;;;4.07;;
4555;SDS011;2290;48.674;9.018;2023-06-10T09:12:32;6.10;;;5.07;;
4555;SDS011;2290;48.674;9.018;2023-06-10T09:14:59;8.23;;;4.97;;
4555;SDS011;2290;48.674;9.018;2023-06-10T09:17:26;5.30;;;4.27;;
4555;SDS011;2290;48.674;9.018;2023-06-10T09:19:53;5.40;;;4.70;;
4555;SDS011;2290;48.674;9.018;2023-06-10T09:22:21;6.17;;;5.10;;
4555;SDS011;2290;48.674;9.018;2023-06-10T09:24:47;4.40;;;4.00;;
4555;SDS011;2290;48.674;9.018;2023-06-10T09:27:13;6.90;;;4.90;;
4555;SDS011;2290;48.674;9.018;2023-06-10T09:29:45;4.90;;;4.40;;
4555;SDS011;2290;48.674;9.018;2023-06-10T09:32:23;9.10;;;4.93;;
4555;SDS011;2290;48.674;9.018;2023-06-10T09:34:49;5.67;;;4.50;;
4555;SDS011;2290;48.674;9.018;2023-06-10T09:37:25;7.80;;;5.10;;
4555;SDS011;2290;48.674;9.018;2023-06-10T09:40:01;5.53;;;4.70;;
4555;SDS011;2290;48.674;9.018;2023-06-10T09:42:32;6.10;;;5.43;;
4555;SDS011;2290;48.674;9.018;2023-06-10T09:44:59;5.10;;;4.60;;
4555;SDS011;2290;48.674;9.018;2023-06-10T09:47:27;6.57;;;5.03;;
4555;SDS011;2290;48.674;9.018;2023-06-10T09:49:53;5.17;;;4.50;;
4555;SDS011;2290;48.674;9.018;2023-06-10T09:52:25;5.00;;;4.30;;
4555;SDS011;2290;48.674;9.018;2023-06-10T09:54:53;7.10;;;4.80;;
4555;SDS011;2290;48.674;9.018;2023-06-10T09:57:19;6.03;;;5.07;;
4555;SDS011;2290;48.674;9.018;2023-06-10T09:59:46;7.70;;;4.70;;
4555;SDS011;2290;48.674;9.018;2023-06-10T10:02:15;6.40;;;5.10;;
4555;SDS011;2290;48.674;9.018;2023-06-10T10:04:42;5.00;;;4.50;;
4555;SDS011;2290;48.674;9.018;2023-06-10T10:07:11;6.00;;;5.10;;
4555;SDS011;2290;48.674;9.018;2023-06-10T10:09:37;7.33;;;5.43;;
4555;SDS011;2290;48.674;9.018;2023-06-10T10:12:09;5.27;;;4.77;;
4555;SDS011;2290;48.674;9.018;2023-06-10T10:14:36;6.80;;;5.23;;
4555;SDS011;2290;48.674;9.018;2023-06-10T10:17:04;6.10;;;4.90;;
4555;SDS011;2290;48.674;9.018;2023-06-10T10:19:36;5.60;;;5.10;;
4555;SDS011;2290;48.674;9.018;2023-06-10T10:22:10;6.10;;;4.70;;
4555;SDS011;2290;48.674;9.018;2023-06-10T10:25:02;5.30;;;4.80;;
4555;SDS011;2290;48.674;9.018;2023-06-10T10:30:06;5.53;;;4.93;;
4555;SDS011;2290;48.674;9.018;2023-06-10T10:32:37;5.37;;;4.50;;
4555;SDS011;2290;48.674;9.018;2023-06-10T10:35:08;6.30;;;5.10;;
4555;SDS011;2290;48.674;9.018;2023-06-10T10:37:37;5.70;;;5.00;;
4555;SDS011;2290;48.674;9.018;2023-06-10T10:40:04;5.97;;;5.07;;
4555;SDS011;2290;48.674;9.018;2023-06-10T10:42:34;5.93;;;5.33;;
4555;SDS011;2290;48.674;9.018;2023-06-10T10:45:00;5.60;;;4.70;;
4555;SDS011;2290;48.674;9.018;2023-06-10T10:47:28;5.20;;;4.70;;
4555;SDS011;2290;48.674;9.018;2023-06-10T10:49:56;6.70;;;5.20;;
4555;SDS011;2290;48.674;9.018;2023-06-10T10:52:25;5.40;;;4.80;;
4555;SDS011;2290;48.674;9.018;2023-06-10T10:54:52;5.67;;;5.07;;
4555;SDS011;2290;48.674;9.018;2023-06-10T10:57:20;5.77;;;5.03;;
4555;SDS011;2290;48.674;9.018;2023-06-10T10:59:57;5.53;;;4.93;;
4555;SDS011;2290;48.674;9.018;2023-06-10T11:05:09;5.80;;;5.20;;
4555;SDS011;2290;48.674;9.018;2023-06-10T11:07:36;5.67;;;5.13;;
4555;SDS011;2290;48.674;9.018;2023-06-10T11:10:09;5.30;;;4.80;;
4555;SDS011;2290;48.674;9.018;2023-06-10T11:12:50;4.90;;;4.23;;
4555;SDS011;2290;48.674;9.018;2023-06-10T11:15:23;6.40;;;5.27;;
4555;SDS011;2290;48.674;9.018;2023-06-10T11:18:31;7.70;;;5.00;;
4555;SDS011;2290;48.674;9.018;2023-06-10T11:21:03;4.63;;;4.10;;
4555;SDS011;2290;48.674;9.018;2023-06-10T11:23:34;5.90;;;5.30;;
4555;SDS011;2290;48.674;9.018;2023-06-10T11:33:49;6.63;;;5.00;;
4555;SDS011;2290;48.674;9.018;2023-06-10T11:36:21;5.47;;;4.97;;
4555;SDS011;2290;48.674;9.018;2023-06-10T11:38:47;5.80;;;5.13;;
4555;SDS011;2290;48.674;9.018;2023-06-10T11:41:15;5.70;;;4.90;;
4555;SDS011;2290;48.674;9.018;2023-06-10T11:43:42;6.00;;;4.80;;
4555;SDS011;2290;48.674;9.018;2023-06-10T11:46:09;6.23;;;5.27;;
4555;SDS011;2290;48.674;9.018;2023-06-10T11:48:35;5.77;;;5.20;;
4555;SDS011;2290;48.674;9.018;2023-06-10T11:51:05;5.80;;;5.10;;
4555;SDS011;2290;48.674;9.018;2023-06-10T11:53:34;6.23;;;5.63;;
4555;SDS011;2290;48.674;9.018;2023-06-10T11:56:00;5.30;;;4.80;;
4555;SDS011;2290;48.674;9.018;2023-06-10T11:58:25;4.97;;;4.53;;
4555;SDS011;2290;48.674;9.018;2023-06-10T12:00:55;5.90;;;5.30;;
4555;SDS011;2290;48.674;9.018;2023-06-10T12:03:26;6.47;;;5.10;;
4555;SDS011;2290;48.674;9.018;2023-06-10T12:06:04;5.83;;;5.23;;
4555;SDS011;2290;48.674;9.018;2023-06-10T12:08:31;5.77;;;5.03;;
4555;SDS011;2290;48.674;9.018;2023-06-10T12:11:06;6.23;;;5.47;;
4555;SDS011;2290;48.674;9.018;2023-06-10T12:13:31;5.33;;;4.80;;
4555;SDS011;2290;48.674;9.018;2023-06-10T12:16:08;5.03;;;4.63;;
4555;SDS011;2290;48.674;9.018;2023-06-10T12:18:34;5.47;;;4.97;;
4555;SDS011;2290;48.674;9.018;2023-06-10T12:21:00;6.97;;;4.60;;
4555;SDS011;2290;48.674;9.018;2023-06-10T12:23:26;5.17;;;4.67;;
4555;SDS011;2290;48.674;9.018;2023-06-10T12:25:52;5.83;;;5.33;;
4555;SDS011;2290;48.674;9.018;2023-06-10T12:28:22;5.50;;;4.60;;
4555;SDS011;2290;48.674;9.018;2023-06-10T12:30:50;6.30;;;5.50;;
4555;SDS011;2290;48.674;9.018;2023-06-10T12:33:19;6.20;;;5.60;;
4555;SDS011;2290;48.674;9.018;2023-06-10T12:35:47;6.10;;;5.50;;
4555;SDS011;2290;48.674;9.018;2023-06-10T12:38:14;7.40;;;5.93;;
4555;SDS011;2290;48.674;9.018;2023-06-10T12:40:47;6.40;;;5.60;;
4555;SDS011;2290;48.674;9.018;2023-06-10T12:43:13;6.50;;;5.90;;
4555;SDS011;2290;48.674;9.018;2023-06-10T12:45:47;5.60;;;5.10;;
4555;SDS011;2290;48.674;9.018;2023-06-10T12:53:22;6.00;;;5.40;;
4555;SDS011;2290;48.674;9.018;2023-06-10T12:55:50;5.80;;;5.27;;
4555;SDS011;2290;48.674;9.018;2023-06-10T12:58:16;5.70;;;5.03;;
4555;SDS011;2290;48.674;9.018;2023-06-10T13:00:43;6.40;;;5.80;;
4555;SDS011;2290;48.674;9.018;2023-06-10T13:03:09;5.70;;;4.83;;
4555;SDS011;2290;48.674;9.018;2023-06-10T13:05:35;5.13;;;4.63;;
4555;SDS011;2290;48.674;9.018;2023-06-10T13:08:03;5.80;;;5.30;;
4555;SDS011;2290;48.674;9.018;2023-06-10T13:10:33;6.00;;;5.40;;
4555;SDS011;2290;48.674;9.018;2023-06-10T13:13:00;5.87;;;5.27;;
4555;SDS011;2290;48.674;9.018;2023-06-10T13:15:26;5.30;;;4.80;;
4555;SDS011;2290;48.674;9.018;2023-06-10T13:17:52;7.30;;;5.50;;
4555;SDS011;2290;48.674;9.018;2023-06-10T13:20:18;5.83;;;4.97;;
4555;SDS011;2290;48.674;9.018;2023-06-10T13:22:44;6.17;;;5.47;;
4555;SDS011;2290;48.674;9.018;2023-06-10T13:25:10;6.30;;;5.70;;
4555;SDS011;2290;48.674;9.018;2023-06-10T13:27:35;5.83;;;5.30;;
4555;SDS011;2290;48.674;9.018;2023-06-10T13:30:07;6.43;;;5.73;;
4555;SDS011;2290;48.674;9.018;2023-06-10T13:32:37;6.10;;;5.47;;
4555;SDS011;2290;48.674;9.018;2023-06-10T13:35:02;8.90;;;5.33;;
4555;SDS011;2290;48.674;9.018;2023-06-10T13:37:28;6.30;;;5.70;;
4555;SDS011;2290;48.674;9.018;2023-06-10T13:39:54;6.27;;;5.67;;
4555;SDS011;2290;48.674;9.018;2023-06-10T13:42:20;6.47;;;5.50;;
4555;SDS011;2290;48.674;9.018;2023-06-10T13:44:46;6.53;;;5.30;;
4555;SDS011;2290;48.674;9.018;2023-06-10T13:47:14;5.20;;;4.70;;
4555;SDS011;2290;48.674;9.018;2023-06-10T13:49:40;5.43;;;4.80;;
4555;SDS011;2290;48.674;9.018;2023-06-10T13:52:06;5.57;;;5.00;;
4555;SDS011;2290;48.674;9.018;2023-06-10T13:54:32;6.20;;;5.27;;
4555;SDS011;2290;48.674;9.018;2023-06-10T13:56:58;6.40;;;5.57;;
4555;SDS011;2290;48.674;9.018;2023-06-10T13:59:25;6.30;;;5.63;;
4555;SDS011;2290;48.674;9.018;2023-06-10T14:01:52;5.93;;;5.20;;
4555;SDS011;2290;48.674;9.018;2023-06-10T14:04:17;6.17;;;5.50;;
4555;SDS011;2290;48.674;9.018;2023-06-10T14:06:43;5.50;;;5.00;;
4555;SDS011;2290;48.674;9.018;2023-06-10T14:09:09;6.20;;;5.60;;
4555;SDS011;2290;48.674;9.018;2023-06-10T14:11:35;7.40;;;5.63;;
4555;SDS011;2290;48.674;9.018;2023-06-10T14:14:01;6.20;;;5.60;;
4555;SDS011;2290;48.674;9.018;2023-06-10T14:16:27;6.20;;;5.60;;
4555;SDS011;2290;48.674;9.018;2023-06-10T14:18:53;6.63;;;5.00;;
4555;SDS011;2290;48.674;9.018;2023-06-10T14:21:20;6.00;;;5.40;;
4555;SDS011;2290;48.674;9.018;2023-06-10T14:23:46;5.77;;;5.20;;
4555;SDS011;2290;48.674;9.018;2023-06-10T14:26:13;6.00;;;5.40;;
4555;SDS011;2290;48.674;9.018;2023-06-10T14:28:39;5.43;;;4.93;;
4555;SDS011;2290;48.674;9.018;2023-06-10T14:31:05;5.80;;;5.17;;
4555;SDS011;2290;48.674;9.018;2023-06-10T14:33:32;5.47;;;4.97;;
4555;SDS011;2290;48.674;9.018;2023-06-10T14:35:58;5.50;;;5.00;;
4555;SDS011;2290;48.674;9.018;2023-06-10T14:38:24;5.93;;;5.17;;
4555;SDS011;2290;48.674;9.018;2023-06-10T14:40:50;9.43;;;4.93;;
4555;SDS011;2290;48.674;9.018;2023-06-10T14:43:18;7.10;;;5.50;;
4555;SDS011;2290;48.674;9.018;2023-06-10T14:45:43;5.70;;;5.13;;
4555;SDS011;2290;48.674;9.018;2023-06-10T14:48:10;6.00;;;5.07;;
4555;SDS011;2290;48.674;9.018;2023-06-10T14:50:35;5.47;;;4.97;;
4555;SDS011;2290;48.674;9.018;2023-06-10T14:53:02;6.93;;;5.13;;
4555;SDS011;2290;48.674;9.018;2023-06-10T14:55:28;6.00;;;5.23;;
4555;SDS011;2290;48.674;9.018;2023-06-10T14:57:54;5.10;;;4.60;;
4555;SDS011;2290;48.674;9.018;2023-06-10T15:00:21;7.70;;;5.60;;
4555;SDS011;2290;48.674;9.018;2023-06-10T15:02:50;6.90;;;5.57;;
4555;SDS011;2290;48.674;9.018;2023-06-10T15:05:16;5.77;;;4.90;;
4555;SDS011;2290;48.674;9.018;2023-06-10T15:07:44;6.40;;;5.57;;
4555;SDS011;2290;48.674;9.018;2023-06-10T15:10:10;5.43;;;4.63;;
4555;SDS011;2290;48.674;9.018;2023-06-10T15:12:36;6.80;;;5.70;;
4555;SDS011;2290;48.674;9.018;2023-06-10T15:15:02;6.30;;;4.87;;
4555;SDS011;2290;48.674;9.018;2023-06-10T15:17:28;5.60;;;4.70;;
4555;SDS011;2290;48.674;9.018;2023-06-10T15:19:54;6.10;;;5.20;;
4555;SDS011;2290;48.674;9.018;2023-06-10T15:22:20;5.50;;;5.00;;
4555;SDS011;2290;48.674;9.018;2023-06-10T15:24:46;5.97;;;5.37;;
4555;SDS011;2290;48.674;9.018;2023-06-10T15:27:11;6.30;;;5.60;;
4555;SDS011;2290;48.674;9.018;2023-06-10T15:29:37;5.03;;;4.60;;
4555;SDS011;2290;48.674;9.018;2023-06-10T15:32:04;6.73;;;5.80;;
4555;SDS011;2290;48.674;9.018;2023-06-10T15:34:30;8.03;;;7.23;;